createdAt,value
2022-12-24T00:01:22.563Z,99443.60
2022-12-24T00:03:50.692Z,99434.41
2022-12-24T00:06:21.698Z,99440.48
2022-12-24T00:08:51.407Z,99443.98
2022-12-24T00:11:19.407Z,99443.93
2022-12-24T00:13:48.206Z,99439.95
2022-12-24T00:16:16.407Z,99443.30
2022-12-24T00:18:46.618Z,99439.23
2022-12-24T00:21:16.103Z,99438.31
2022-12-24T00:23:43.925Z,99440.54
2022-12-24T00:26:13.282Z,99438.04
2022-12-24T00:28:41.677Z,99443.39
2022-12-24T00:31:17.960Z,99440.19
2022-12-24T00:33:46.979Z,99444.82
2022-12-24T00:36:15.176Z,99442.13
2022-12-24T00:38:43.202Z,99439.14
2022-12-24T00:41:24.949Z,99429.67
2022-12-24T00:43:58.727Z,99431.60
2022-12-24T00:46:28.591Z,99428.39
2022-12-24T00:48:57.087Z,99427.20
2022-12-24T00:51:25.771Z,99424.44
2022-12-24T00:53:53.550Z,99430.13
2022-12-24T00:56:22.104Z,99427.33
2022-12-24T00:58:49.859Z,99431.54
2022-12-24T01:01:18.483Z,99428.55
2022-12-24T01:03:46.581Z,99431.07
2022-12-24T01:06:16.767Z,99426.31
2022-12-24T01:08:44.841Z,99427.45
2022-12-24T01:11:13.646Z,99430.13
2022-12-24T01:13:41.335Z,99427.52
2022-12-24T01:16:19.221Z,99428.55
2022-12-24T01:18:47.171Z,99432.37
2022-12-24T01:21:15.655Z,99434.84
2022-12-24T01:23:43.706Z,99438.14
2022-12-24T01:26:14.211Z,99442.37
2022-12-24T01:28:42.605Z,99436.73
2022-12-24T01:31:19.993Z,99440.54
2022-12-24T01:33:49.121Z,99439.14
2022-12-24T01:36:16.998Z,99438.48
2022-12-24T01:38:44.657Z,99439.29
2022-12-24T01:41:36.548Z,99442.03
2022-12-24T01:44:43.889Z,99438.39
2022-12-24T01:47:15.910Z,99438.39
2022-12-24T01:49:50.968Z,99434.40
2022-12-24T01:52:23.107Z,99436.48
2022-12-24T01:54:55.486Z,99435.96
2022-12-24T01:57:27.782Z,99445.09
2022-12-24T02:00:00.558Z,99447.27
2022-12-24T02:02:28.849Z,99445.17
2022-12-24T02:05:06.827Z,99443.61
2022-12-24T02:07:35.060Z,99443.44
2022-12-24T02:10:04.025Z,99443.05
2022-12-24T02:12:35.066Z,99441.14
2022-12-24T02:15:04.940Z,99440.59
2022-12-24T02:18:02.442Z,99443.51
2022-12-24T02:20:48.782Z,99446.55
2022-12-24T02:23:28.269Z,99443.34
2022-12-24T02:26:23.031Z,99440.52
2022-12-24T02:29:28.200Z,99436.83
2022-12-24T02:32:01.742Z,99433.79
2022-12-24T02:34:36.419Z,99434.77
2022-12-24T02:37:15.090Z,99433.61
2022-12-24T02:39:53.518Z,99438.63
2022-12-24T02:42:27.407Z,99438.19
2022-12-24T02:45:09.448Z,99434.16
2022-12-24T02:47:38.865Z,99430.39
2022-12-24T02:50:08.732Z,99430.49
2022-12-24T02:52:44.906Z,99434.71
2022-12-24T02:55:21.709Z,99439.75
2022-12-24T02:58:29.277Z,99439.14
2022-12-24T03:01:17.802Z,99437.08
2022-12-24T03:04:04.275Z,99434.73
2022-12-24T03:06:47.517Z,99437.37
2022-12-24T03:09:27.322Z,99439.59
2022-12-24T03:12:06.575Z,99440.62
2022-12-24T03:14:36.027Z,99441.90
2022-12-24T03:17:04.234Z,99442.29
2022-12-24T03:19:33.080Z,99440.20
2022-12-24T03:22:04.498Z,99443.83
2022-12-24T03:24:32.178Z,99440.26
2022-12-24T03:27:00.637Z,99438.34
2022-12-24T03:29:28.404Z,99435.72
2022-12-24T03:32:01.587Z,99437.26
2022-12-24T03:34:29.697Z,99440.55
2022-12-24T03:36:57.612Z,99438.95
2022-12-24T03:39:25.301Z,99441.46
2022-12-24T03:41:52.899Z,99437.97
2022-12-24T03:44:20.567Z,99441.45
2022-12-24T03:46:48.199Z,99439.04
2022-12-24T03:49:15.923Z,99442.00
2022-12-24T03:51:43.575Z,99443.81
2022-12-24T03:54:11.227Z,99443.95
2022-12-24T03:56:38.826Z,99441.09
2022-12-24T03:59:06.497Z,99441.34
2022-12-24T04:01:34.216Z,99442.19
2022-12-24T04:04:02.060Z,99441.52
2022-12-24T04:06:29.751Z,99440.09
2022-12-24T04:08:59.314Z,99441.14
2022-12-24T04:11:27.414Z,99441.84
2022-12-24T04:13:55.187Z,99441.91
2022-12-24T04:16:23.372Z,99439.61
2022-12-24T04:18:51.151Z,99440.21
2022-12-24T04:21:18.785Z,99438.33
2022-12-24T04:23:47.898Z,99440.84
2022-12-24T04:26:15.570Z,99439.96
2022-12-24T04:28:43.387Z,99438.56
2022-12-24T04:31:16.638Z,99441.36
2022-12-24T04:33:45.193Z,99438.16
2022-12-24T04:36:17.128Z,99437.95
2022-12-24T04:38:46.619Z,99438.86
2022-12-24T04:41:23.143Z,99440.77
2022-12-24T04:43:55.374Z,99440.27
2022-12-24T04:46:26.630Z,99440.34
2022-12-24T04:48:54.632Z,99437.74
2022-12-24T04:51:22.828Z,99443.04
2022-12-24T04:53:51.231Z,99440.94
2022-12-24T04:56:27.519Z,99446.77
2022-12-24T04:58:55.610Z,99442.70
2022-12-24T05:01:30.016Z,99447.11
2022-12-24T05:03:58.224Z,99445.56
2022-12-24T05:06:29.740Z,99448.75
2022-12-24T05:08:58.605Z,99452.36
2022-12-24T05:11:27.437Z,99457.46
2022-12-24T05:13:55.339Z,99457.39
2022-12-24T05:16:24.262Z,99459.89
2022-12-24T05:18:53.000Z,99457.52
2022-12-24T05:21:22.473Z,99454.69
2022-12-24T05:24:09.496Z,99456.16
2022-12-24T05:26:44.630Z,99454.65
2022-12-24T05:29:12.970Z,99454.11
2022-12-24T05:31:41.955Z,99453.86
2022-12-24T05:34:10.473Z,99454.24
2022-12-24T05:36:38.361Z,99454.80
2022-12-24T05:39:11.534Z,99456.22
2022-12-24T05:41:43.932Z,99458.50
2022-12-24T05:44:11.651Z,99461.50
2022-12-24T05:46:39.550Z,99460.21
2022-12-24T05:49:07.695Z,99459.50
2022-12-24T05:51:35.751Z,99459.95
2022-12-24T05:54:04.426Z,99462.50
2022-12-24T05:56:32.753Z,99461.57
2022-12-24T05:59:00.424Z,99463.50
2022-12-24T06:01:28.293Z,99469.54
2022-12-24T06:03:57.285Z,99470.90
2022-12-24T06:06:27.109Z,99470.46
2022-12-24T06:08:57.054Z,99473.13
2022-12-24T06:11:27.052Z,99475.61
2022-12-24T06:13:55.443Z,99479.71
2022-12-24T06:16:25.096Z,99481.44
2022-12-24T06:18:52.891Z,99478.48
2022-12-24T06:21:20.968Z,99478.27
2022-12-24T06:23:48.650Z,99478.13
2022-12-24T06:26:19.940Z,99479.96
2022-12-24T06:28:49.281Z,99482.23
2022-12-24T06:31:19.326Z,99485.73
2022-12-24T06:33:47.358Z,99486.23
2022-12-24T06:36:18.379Z,99492.29
2022-12-24T06:38:47.880Z,99489.65
2022-12-24T06:41:16.375Z,99487.80
2022-12-24T06:43:46.002Z,99488.86
2022-12-24T06:46:14.144Z,99490.23
2022-12-24T06:48:44.228Z,99494.20
2022-12-24T06:51:13.992Z,99493.52
2022-12-24T06:53:41.810Z,99495.56
2022-12-24T06:56:12.707Z,99500.13
2022-12-24T06:58:41.233Z,99503.66
2022-12-24T07:01:12.428Z,99504.58
2022-12-24T07:06:29.821Z,99513.39
2022-12-24T07:08:57.511Z,99518.09
2022-12-24T07:11:26.093Z,99523.02
2022-12-24T07:13:53.795Z,99527.23
2022-12-24T07:16:21.793Z,99527.39
2022-12-24T07:18:49.552Z,99529.83
2022-12-24T07:21:17.262Z,99529.48
2022-12-24T07:23:44.851Z,99531.75
2022-12-24T07:26:12.505Z,99538.48
2022-12-24T07:28:40.260Z,99541.23
2022-12-24T07:31:08.053Z,99538.58
2022-12-24T07:33:35.785Z,99541.89
2022-12-24T07:36:06.290Z,99542.05
2022-12-24T07:38:35.526Z,99543.94
2022-12-24T07:41:03.258Z,99548.88
2022-12-24T07:43:32.994Z,99551.04
2022-12-24T07:46:00.775Z,99550.91
2022-12-24T07:48:30.599Z,99549.29
2022-12-24T07:50:58.714Z,99551.30
2022-12-24T07:53:28.020Z,99552.05
2022-12-24T07:55:56.147Z,99553.20
2022-12-24T08:03:42.499Z,99562.04
2022-12-24T08:06:11.491Z,99565.58
2022-12-24T08:08:39.211Z,99569.14
2022-12-24T08:11:07.793Z,99566.42
2022-12-24T08:13:35.922Z,99569.14
2022-12-24T08:16:04.539Z,99568.67
2022-12-24T08:18:33.058Z,99567.77
2022-12-24T08:21:00.665Z,99569.16
2022-12-24T08:23:28.342Z,99575.67
2022-12-24T08:25:56.076Z,99580.30
2022-12-24T08:28:23.672Z,99584.84
2022-12-24T08:30:51.330Z,99591.09
2022-12-24T08:33:22.179Z,99598.34
2022-12-24T08:35:51.295Z,99593.86
2022-12-24T08:38:19.391Z,99600.85
2022-12-24T08:40:50.158Z,99602.16
2022-12-24T08:43:18.871Z,99603.49
2022-12-24T08:45:49.185Z,99606.84
2022-12-24T08:48:17.465Z,99609.52
2022-12-24T08:50:45.624Z,99613.02
2022-12-24T08:53:13.373Z,99613.14
2022-12-24T08:55:41.019Z,99614.09
2022-12-24T08:58:08.721Z,99612.32
2022-12-24T09:00:38.155Z,99612.91
2022-12-24T09:06:22.895Z,99621.83
2022-12-24T09:08:49.125Z,99623.90
2022-12-24T09:11:17.777Z,99621.82
2022-12-24T09:13:44.387Z,99624.80
2022-12-24T09:16:11.463Z,99626.15
2022-12-24T09:18:39.265Z,99632.81
2022-12-24T09:21:09.220Z,99633.41
2022-12-24T09:23:39.001Z,99633.92
2022-12-24T09:26:06.563Z,99634.51
2022-12-24T09:28:32.828Z,99638.27
2022-12-24T09:31:01.237Z,99643.46
2022-12-24T09:33:29.634Z,99643.80
2022-12-24T09:35:56.380Z,99649.94
2022-12-24T09:38:23.581Z,99650.60
2022-12-24T09:40:51.285Z,99650.98
2022-12-24T09:43:26.440Z,99654.36
2022-12-24T09:46:04.912Z,99653.54
2022-12-24T09:48:34.362Z,99653.95
2022-12-24T09:51:08.829Z,99651.90
2022-12-24T09:53:52.637Z,99654.05
2022-12-24T09:56:23.676Z,99653.85
2022-12-24T09:59:05.258Z,99655.43
2022-12-24T10:01:34.030Z,99660.16
2022-12-24T10:04:14.657Z,99663.36
2022-12-24T10:06:57.392Z,99665.27
2022-12-24T10:09:38.079Z,99666.81
2022-12-24T10:12:35.194Z,99671.70
2022-12-24T10:15:19.810Z,99672.92
2022-12-24T10:18:02.067Z,99679.16
2022-12-24T10:20:43.783Z,99681.23
2022-12-24T10:23:20.539Z,99686.30
2022-12-24T10:26:14.936Z,99693.61
2022-12-24T10:28:52.784Z,99695.84
2022-12-24T10:31:24.928Z,99696.38
2022-12-24T10:33:59.072Z,99698.46
2022-12-24T10:36:29.015Z,99703.52
2022-12-24T10:38:56.083Z,99708.61
2022-12-24T10:41:25.681Z,99708.89
2022-12-24T10:43:52.740Z,99709.55
2022-12-24T10:46:23.103Z,99706.52
2022-12-24T10:48:58.240Z,99705.78
2022-12-24T10:51:49.210Z,99707.84
2022-12-24T10:54:27.263Z,99704.80
2022-12-24T10:57:01.792Z,99708.65
2022-12-24T10:59:51.702Z,99709.11
2022-12-24T11:02:36.531Z,99711.58
2022-12-24T11:05:07.093Z,99714.63
2022-12-24T11:07:33.744Z,99717.89
2022-12-24T11:10:06.303Z,99724.85
2022-12-24T11:12:55.689Z,99725.50
2022-12-24T11:15:36.221Z,99729.70
2022-12-24T11:18:05.754Z,99728.26
2022-12-24T11:20:34.339Z,99732.55
2022-12-24T11:23:01.847Z,99735.90
2022-12-24T11:25:34.061Z,99740.06
2022-12-24T11:28:18.675Z,99743.58
2022-12-24T11:30:59.481Z,99750.05
2022-12-24T11:33:26.629Z,99753.22
2022-12-24T11:36:01.730Z,99755.81
2022-12-24T11:38:31.196Z,99755.25
2022-12-24T11:40:59.189Z,99757.56
2022-12-24T11:43:43.534Z,99762.42
2022-12-24T11:46:18.826Z,99765.70
2022-12-24T11:48:46.351Z,99771.83
2022-12-24T11:51:39.931Z,99773.83
2022-12-24T11:54:29.193Z,99782.55
2022-12-24T11:56:58.089Z,99788.27
2022-12-24T11:59:31.841Z,99795.27
2022-12-24T12:05:23.871Z,99805.62
2022-12-24T12:07:58.090Z,99808.86
2022-12-24T12:10:31.631Z,99807.88
2022-12-24T12:13:16.465Z,99810.24
2022-12-24T12:16:00.996Z,99814.77
2022-12-24T12:18:36.072Z,99812.95
2022-12-24T12:21:14.750Z,99822.30
2022-12-24T12:23:49.923Z,99826.05
2022-12-24T12:26:30.161Z,99831.54
2022-12-24T12:29:20.501Z,99842.27
2022-12-24T12:31:52.738Z,99848.80
2022-12-24T12:34:29.509Z,99854.79
2022-12-24T12:37:08.414Z,99853.70
2022-12-24T12:39:40.779Z,99855.63
2022-12-24T12:42:28.075Z,99859.05
2022-12-24T12:45:20.591Z,99861.76
2022-12-24T12:48:24.325Z,99873.66
2022-12-24T12:51:02.678Z,99873.54
2022-12-24T12:54:08.841Z,99871.55
2022-12-24T12:56:38.311Z,99876.59
2022-12-24T12:59:35.903Z,99884.05
2022-12-24T13:02:17.328Z,99891.01
2022-12-24T13:04:59.483Z,99895.58
2022-12-24T13:07:51.729Z,99896.66
2022-12-24T13:10:41.199Z,99903.30
2022-12-24T13:13:20.599Z,99909.98
2022-12-24T13:16:02.666Z,99916.29
2022-12-24T13:18:55.375Z,99913.89
2022-12-24T13:21:26.409Z,99920.55
2022-12-24T13:24:19.025Z,99918.91
2022-12-24T13:27:03.059Z,99922.88
2022-12-24T13:29:31.484Z,99922.27
2022-12-24T13:32:21.059Z,99930.11
2022-12-24T13:34:52.952Z,99932.98
2022-12-24T13:37:35.343Z,99940.63
2022-12-24T13:40:06.157Z,99947.38
2022-12-24T13:42:59.168Z,99951.02
2022-12-24T13:45:29.930Z,99955.20
2022-12-24T13:48:01.476Z,99960.09
2022-12-24T13:50:44.608Z,99963.52
2022-12-24T13:53:22.351Z,99965.75
2022-12-24T13:55:56.385Z,99972.02
2022-12-24T13:58:25.765Z,99977.65
2022-12-24T14:00:57.556Z,99981.45
2022-12-24T14:06:52.354Z,99989.02
2022-12-24T14:09:25.164Z,99995.06
2022-12-24T14:11:58.708Z,100007.45
2022-12-24T14:14:37.185Z,100011.16
2022-12-24T14:17:22.810Z,100019.67
2022-12-24T14:20:02.374Z,100017.48
2022-12-24T14:22:34.397Z,100023.61
2022-12-24T14:25:18.553Z,100026.61
2022-12-24T14:27:52.375Z,100033.61
2022-12-24T14:30:31.304Z,100037.48
2022-12-24T14:32:59.012Z,100042.02
2022-12-24T14:35:31.107Z,100043.98
2022-12-24T14:38:05.521Z,100045.77
2022-12-24T14:40:50.798Z,100048.77
2022-12-24T14:43:42.936Z,100053.88
2022-12-24T14:46:26.561Z,100061.79
2022-12-24T14:49:12.187Z,100068.02
2022-12-24T14:52:38.058Z,100075.02
2022-12-24T14:55:01.345Z,100082.54
2022-12-24T14:57:29.192Z,100085.27
2022-12-24T15:00:02.276Z,100089.69
2022-12-24T15:05:44.747Z,100089.92
2022-12-24T15:08:18.340Z,100096.39
2022-12-24T15:10:54.934Z,100105.58
2022-12-24T15:13:26.364Z,100107.81
2022-12-24T15:15:55.638Z,100110.05
2022-12-24T15:18:28.669Z,100116.80
2022-12-24T15:21:04.040Z,100117.87
2022-12-24T15:23:34.187Z,100123.27
2022-12-24T15:26:09.511Z,100124.75
2022-12-24T15:28:39.284Z,100126.21
2022-12-24T15:31:28.327Z,100128.09
2022-12-24T15:33:59.228Z,100132.33
2022-12-24T15:36:37.149Z,100136.77
2022-12-24T15:39:08.411Z,100138.65
2022-12-24T15:42:02.178Z,100136.56
2022-12-24T15:44:34.134Z,100136.27
2022-12-24T15:47:04.603Z,100141.48
2022-12-24T15:49:34.165Z,100144.17
2022-12-24T15:52:10.719Z,100141.11
2022-12-24T15:54:52.148Z,100145.59
2022-12-24T15:57:33.476Z,100149.74
2022-12-24T16:00:02.495Z,100150.16
2022-12-24T16:05:38.592Z,100159.13
2022-12-24T16:08:15.006Z,100160.52
2022-12-24T16:10:45.349Z,100156.94
2022-12-24T16:13:23.805Z,100159.03
2022-12-24T16:15:59.513Z,100158.58
2022-12-24T16:18:35.962Z,100164.88
2022-12-24T16:21:05.363Z,100165.89
2022-12-24T16:23:39.204Z,100167.79
2022-12-24T16:26:06.901Z,100169.57
2022-12-24T16:28:34.658Z,100174.16
2022-12-24T16:31:02.703Z,100178.90
2022-12-24T16:33:30.508Z,100175.52
2022-12-24T16:35:58.350Z,100186.08
2022-12-24T16:38:26.123Z,100190.61
2022-12-24T16:40:53.821Z,100193.05
2022-12-24T16:43:40.443Z,100196.63
2022-12-24T16:46:08.412Z,100200.81
2022-12-24T16:48:37.789Z,100199.67
2022-12-24T16:51:05.876Z,100200.31
2022-12-24T16:53:33.725Z,100201.98
2022-12-24T16:56:02.700Z,100206.16
2022-12-24T16:58:30.587Z,100205.39
2022-12-24T17:00:59.714Z,100213.95
2022-12-24T17:03:27.482Z,100217.63
2022-12-24T17:05:55.202Z,100217.96
2022-12-24T17:08:22.889Z,100223.96
2022-12-24T17:10:51.669Z,100232.94
2022-12-24T17:13:19.465Z,100234.53
2022-12-24T17:15:47.221Z,100236.63
2022-12-24T17:18:15.109Z,100241.61
2022-12-24T17:20:42.714Z,100244.88
2022-12-24T17:23:10.771Z,100245.50
2022-12-24T17:25:38.572Z,100248.16
2022-12-24T17:28:06.354Z,100251.25
2022-12-24T17:30:33.994Z,100250.27
2022-12-24T17:33:01.808Z,100256.31
2022-12-24T17:35:29.509Z,100264.77
2022-12-24T17:37:57.213Z,100264.63
2022-12-24T17:40:24.927Z,100261.97
2022-12-24T17:42:52.824Z,100261.65
2022-12-24T17:45:20.501Z,100262.59
2022-12-24T17:47:48.268Z,100264.47
2022-12-24T17:50:16.122Z,100266.13
2022-12-24T17:52:43.979Z,100268.96
2022-12-24T17:55:11.742Z,100276.30
2022-12-24T17:57:39.577Z,100276.73
2022-12-24T18:00:08.117Z,100283.67
2022-12-24T18:05:48.496Z,100287.86
2022-12-24T18:08:16.222Z,100289.67
2022-12-24T18:10:43.874Z,100291.98
2022-12-24T18:13:17.367Z,100297.69
2022-12-24T18:15:47.097Z,100295.52
2022-12-24T18:18:14.821Z,100300.48
2022-12-24T18:20:46.529Z,100300.23
2022-12-24T18:23:14.713Z,100303.02
2022-12-24T18:25:42.361Z,100307.42
2022-12-24T18:28:10.503Z,100312.13
2022-12-24T18:30:38.204Z,100308.10
2022-12-24T18:33:06.156Z,100308.39
2022-12-24T18:35:33.874Z,100312.66
2022-12-24T18:38:01.550Z,100317.69
2022-12-24T18:40:29.266Z,100321.84
2022-12-24T18:42:57.062Z,100323.70
2022-12-24T18:45:24.837Z,100322.33
2022-12-24T18:47:52.570Z,100325.46
2022-12-24T18:50:20.251Z,100330.99
2022-12-24T18:52:50.492Z,100336.16
2022-12-24T18:55:18.128Z,100338.88
2022-12-24T18:57:45.740Z,100340.80
2022-12-24T19:00:13.597Z,100342.73
2022-12-24T19:02:41.427Z,100347.87
2022-12-24T19:05:09.573Z,100351.56
2022-12-24T19:07:37.315Z,100355.02
2022-12-24T19:10:05.458Z,100359.24
2022-12-24T19:12:33.148Z,100366.70
2022-12-24T19:15:01.521Z,100373.27
2022-12-24T19:17:29.255Z,100381.29
2022-12-24T19:19:56.992Z,100388.50
2022-12-24T19:22:27.849Z,100390.63
2022-12-24T19:24:55.665Z,100393.92
2022-12-24T19:27:23.406Z,100396.79
2022-12-24T19:29:51.171Z,100396.70
2022-12-24T19:32:18.902Z,100392.71
2022-12-24T19:34:46.789Z,100389.11
2022-12-24T19:37:14.538Z,100396.02
2022-12-24T19:39:42.409Z,100393.42
2022-12-24T19:42:10.268Z,100395.48
2022-12-24T19:44:38.131Z,100387.16
2022-12-24T19:47:05.897Z,100389.51
2022-12-24T19:49:33.595Z,100391.31
2022-12-24T19:52:01.320Z,100388.35
2022-12-24T19:54:28.927Z,100388.24
2022-12-24T19:56:56.582Z,100391.39
2022-12-24T19:59:24.206Z,100394.16
2022-12-24T20:01:54.326Z,100402.42
2022-12-24T20:04:22.302Z,100412.27
2022-12-24T20:06:54.698Z,100421.48
2022-12-24T20:09:25.721Z,100427.14
2022-12-24T20:11:53.554Z,100429.73
2022-12-24T20:14:21.185Z,100432.46
2022-12-24T20:16:50.012Z,100432.08
2022-12-24T20:19:17.886Z,100434.91
2022-12-24T20:21:45.639Z,100437.58
2022-12-24T20:24:13.417Z,100440.82
2022-12-24T20:26:41.241Z,100442.09
2022-12-24T20:29:10.609Z,100443.80
2022-12-24T20:31:39.145Z,100443.30
2022-12-24T20:34:08.446Z,100447.73
2022-12-24T20:36:37.519Z,100441.89
2022-12-24T20:39:06.566Z,100438.38
2022-12-24T20:41:34.357Z,100432.19
2022-12-24T20:44:02.139Z,100431.02
2022-12-24T20:46:31.119Z,100430.49
2022-12-24T20:48:58.865Z,100436.39
2022-12-24T20:51:28.440Z,100443.67
2022-12-24T20:53:59.187Z,100450.91
2022-12-24T20:56:28.006Z,100456.45
2022-12-24T20:58:55.638Z,100458.86
2022-12-24T21:01:26.022Z,100458.19
2022-12-24T21:06:42.351Z,100460.02
2022-12-24T21:09:10.707Z,100459.50
2022-12-24T21:11:50.443Z,100463.65
2022-12-24T21:14:22.254Z,100463.73
2022-12-24T21:16:50.979Z,100466.13
2022-12-24T21:19:21.884Z,100470.59
2022-12-24T21:21:49.931Z,100467.16
2022-12-24T21:24:17.969Z,100470.61
2022-12-24T21:26:45.651Z,100471.73
2022-12-24T21:29:14.648Z,100468.88
2022-12-24T21:31:42.429Z,100465.98
2022-12-24T21:34:10.091Z,100461.46
2022-12-24T21:36:37.738Z,100461.16
2022-12-24T21:39:05.428Z,100457.95
2022-12-24T21:41:33.088Z,100458.67
2022-12-24T21:44:02.137Z,100467.56
2022-12-24T21:46:30.072Z,100474.98
2022-12-24T21:49:16.540Z,100474.42
2022-12-24T21:51:46.568Z,100472.27
2022-12-24T21:54:25.391Z,100476.76
2022-12-24T21:57:15.160Z,100477.58
2022-12-24T21:59:42.908Z,100483.90
2022-12-24T22:02:13.712Z,100485.80
2022-12-24T22:04:42.452Z,100486.02
2022-12-24T22:07:39.710Z,100485.45
2022-12-24T22:10:26.925Z,100484.95
2022-12-24T22:12:55.341Z,100487.88
2022-12-24T22:25:48.171Z,100489.61
2022-12-24T22:28:15.959Z,100490.68
2022-12-24T22:30:43.656Z,100490.43
2022-12-24T22:33:11.302Z,100488.09
2022-12-24T22:35:40.350Z,100487.17
2022-12-24T22:38:09.589Z,100489.63
2022-12-24T22:40:40.193Z,100491.88
2022-12-24T22:43:07.962Z,100490.27
2022-12-24T22:45:35.738Z,100496.42
2022-12-24T22:48:03.583Z,100495.64
2022-12-24T22:50:31.479Z,100492.73
2022-12-24T23:03:23.933Z,100498.61
2022-12-24T23:05:56.817Z,100502.11
2022-12-24T23:08:25.105Z,100498.68
2022-12-24T23:10:54.615Z,100498.80
2022-12-24T23:13:40.875Z,100500.02
2022-12-24T23:16:08.821Z,100502.48
2022-12-24T23:18:36.507Z,100500.51
2022-12-24T23:21:06.144Z,100507.41
2022-12-24T23:23:37.115Z,100507.41
2022-12-24T23:26:11.845Z,100513.42
2022-12-24T23:28:40.234Z,100509.96
2022-12-24T23:31:08.476Z,100507.38
2022-12-24T23:33:36.469Z,100505.69
2022-12-24T23:36:04.921Z,100507.88
2022-12-24T23:38:32.701Z,100506.49
2022-12-24T23:41:03.172Z,100515.27
2022-12-24T23:43:31.463Z,100515.46
2022-12-24T23:45:59.772Z,100512.41
2022-12-24T23:48:28.475Z,100517.70
2022-12-24T23:51:08.642Z,100516.01
2022-12-24T23:53:36.700Z,100519.52
2022-12-24T23:56:05.125Z,100522.45
2022-12-24T23:58:33.166Z,100522.70
